createdAt,value
2022-10-19T03:57:37.938Z,5.96
2022-10-19T04:03:44.649Z,5.66
2022-10-19T04:22:24.045Z,6.04
2022-10-19T04:28:26.235Z,5.49
2022-10-19T04:34:28.147Z,5.59
2022-10-19T04:40:41.529Z,5.50
2022-10-19T04:46:50.135Z,5.31
2022-10-19T04:53:05.436Z,5.31
2022-10-19T04:59:10.430Z,6.22
2022-10-19T05:05:13.569Z,7.14
2022-10-19T05:11:23.057Z,8.29
2022-10-19T05:17:24.851Z,8.65
2022-10-19T05:23:26.786Z,10.10
2022-10-19T05:29:28.708Z,9.98
2022-10-19T05:35:30.681Z,10.28
2022-10-19T05:41:32.851Z,11.04
2022-10-19T05:47:35.431Z,11.12
2022-10-19T05:59:39.216Z,10.86
2022-10-19T06:05:40.906Z,10.96
2022-10-19T06:11:43.617Z,11.54
2022-10-19T06:17:45.358Z,11.96
2022-10-19T06:23:53.856Z,12.00
2022-10-19T06:29:55.721Z,12.73
2022-10-19T06:36:15.644Z,12.39
2022-10-19T06:42:17.505Z,13.25
2022-10-19T06:48:19.809Z,13.25
2022-10-19T06:54:21.580Z,13.22
2022-10-19T07:00:26.407Z,13.17
2022-10-19T07:06:30.441Z,13.48
2022-10-19T07:12:32.270Z,13.73
2022-10-19T07:18:36.042Z,13.89
2022-10-19T07:24:38.762Z,13.64
2022-10-19T07:30:41.785Z,13.62
2022-10-19T07:36:48.323Z,13.71
2022-10-19T07:42:51.261Z,13.95
2022-10-19T07:49:00.206Z,13.95
2022-10-19T07:55:02.475Z,13.15
2022-10-19T08:01:07.159Z,13.87
2022-10-19T08:07:09.675Z,13.69
2022-10-19T08:13:13.223Z,12.94
2022-10-19T08:19:16.660Z,13.39
2022-10-19T08:25:18.486Z,12.89
2022-10-19T08:31:22.816Z,12.82
2022-10-19T08:37:40.659Z,12.56
2022-10-19T08:44:31.753Z,12.83
2022-10-19T08:50:56.778Z,12.21
2022-10-19T08:57:17.799Z,12.84
2022-10-19T09:03:37.863Z,12.78
2022-10-19T09:10:17.310Z,12.22
2022-10-19T09:16:20.658Z,12.70
2022-10-19T09:22:35.803Z,12.68
2022-10-19T09:28:40.900Z,12.98
2022-10-19T09:34:53.339Z,12.82
2022-10-19T09:41:16.194Z,12.88
2022-10-19T09:54:04.800Z,14.13
2022-10-19T10:00:07.409Z,14.38
2022-10-19T10:06:18.351Z,13.45
2022-10-19T10:12:25.184Z,14.16
2022-10-19T10:18:32.207Z,13.24
2022-10-19T10:24:35.327Z,13.76
2022-10-19T10:38:00.521Z,14.42
2022-10-19T10:44:15.443Z,14.40
2022-10-19T10:56:44.656Z,14.25
2022-10-19T11:03:27.710Z,14.79
2022-10-19T11:09:36.685Z,14.64
2022-10-19T11:22:41.364Z,14.54
2022-10-19T12:35:54.049Z,15.47
2022-10-19T12:48:55.565Z,15.46
2022-10-19T13:15:05.120Z,14.64
2022-10-19T13:21:46.074Z,15.52
2022-10-19T13:47:20.253Z,15.53
2022-10-19T13:53:53.234Z,14.75
2022-10-19T14:00:24.301Z,15.38
2022-10-19T14:06:51.364Z,14.59
2022-10-19T14:12:58.758Z,14.12
2022-10-19T14:19:15.789Z,13.58
2022-10-19T14:25:35.881Z,13.61
2022-10-19T14:32:00.117Z,12.83
2022-10-19T14:38:35.612Z,13.37
2022-10-19T14:45:03.885Z,13.14
2022-10-19T14:57:54.324Z,13.16
2022-10-19T15:04:03.902Z,13.16
2022-10-19T15:10:10.631Z,13.12
2022-10-19T15:16:56.937Z,12.80
2022-10-19T15:22:59.361Z,12.38
2022-10-19T15:29:12.180Z,12.52
2022-10-19T15:35:40.365Z,12.70
2022-10-19T15:41:43.705Z,12.40
2022-10-19T15:48:10.476Z,12.44
2022-10-19T15:54:16.138Z,12.51
2022-10-19T16:00:20.428Z,12.00
2022-10-19T16:06:30.911Z,11.93
2022-10-19T16:12:39.257Z,12.00
2022-10-19T16:18:42.782Z,12.28
2022-10-19T16:24:54.500Z,11.60
2022-10-19T16:31:00.453Z,11.73
2022-10-19T16:37:05.859Z,12.21
2022-10-19T16:43:10.270Z,11.74
2022-10-19T16:49:12.705Z,12.39
2022-10-19T16:55:16.933Z,12.08
2022-10-19T17:01:20.080Z,12.38
2022-10-19T17:07:26.763Z,12.32
2022-10-19T17:13:28.663Z,11.18
2022-10-19T17:25:49.568Z,11.62
2022-10-19T17:31:51.404Z,11.37
2022-10-19T17:37:54.486Z,11.70
2022-10-19T17:43:57.133Z,11.49
2022-10-19T17:49:59.026Z,10.92
2022-10-19T17:56:06.985Z,10.95
2022-10-19T18:02:16.341Z,10.83
2022-10-19T18:08:20.234Z,10.12
2022-10-19T18:14:24.406Z,10.20
2022-10-19T18:33:11.691Z,10.27
2022-10-19T18:39:14.396Z,10.38
2022-10-19T18:45:16.612Z,9.50
2022-10-19T18:51:26.661Z,9.36
2022-10-19T18:57:31.961Z,10.08
2022-10-19T19:03:35.317Z,9.84
2022-10-19T19:09:38.300Z,9.98
2022-10-19T19:15:43.201Z,9.39
2022-10-19T19:21:45.745Z,9.78
2022-10-19T19:27:51.156Z,9.70
2022-10-19T19:33:54.421Z,9.47
2022-10-19T19:39:57.281Z,9.45
2022-10-19T19:46:18.203Z,9.49
2022-10-19T19:52:20.130Z,9.27
2022-10-19T19:58:25.376Z,10.38
2022-10-19T20:10:44.398Z,10.12
2022-10-19T20:16:46.179Z,9.88
2022-10-19T20:22:49.066Z,10.09
2022-10-19T20:28:51.415Z,9.87
2022-10-19T20:34:53.588Z,9.10
2022-10-19T20:41:04.240Z,10.02
2022-10-19T20:47:23.842Z,9.47
2022-10-19T20:53:36.106Z,10.13
2022-10-19T20:59:38.971Z,10.46
2022-10-19T21:05:40.855Z,9.57
2022-10-19T21:11:54.436Z,9.80
2022-10-19T21:17:58.721Z,9.70
2022-10-19T21:24:05.025Z,9.87
2022-10-19T21:30:07.335Z,9.63
2022-10-19T21:36:11.959Z,9.24
2022-10-19T21:42:16.620Z,9.15
2022-10-19T21:48:20.359Z,9.13
2022-10-19T21:54:29.419Z,9.27
2022-10-19T22:00:31.471Z,9.18
2022-10-19T22:06:37.949Z,8.59
2022-10-19T22:12:44.413Z,8.40
2022-10-19T22:18:51.047Z,7.85
2022-10-19T22:24:57.934Z,8.20
2022-10-19T22:31:00.131Z,8.39
2022-10-19T22:37:01.978Z,7.90
2022-10-19T22:43:06.718Z,8.04
2022-10-19T22:55:11.392Z,8.41
2022-10-19T23:01:15.075Z,8.14
2022-10-19T23:07:16.954Z,8.20
2022-10-19T23:13:23.325Z,7.95
2022-10-19T23:19:31.962Z,8.35
2022-10-19T23:25:39.877Z,7.83
2022-10-19T23:31:41.609Z,8.22
2022-10-19T23:37:52.868Z,8.30
2022-10-19T23:43:55.240Z,8.05
2022-10-19T23:49:57.271Z,7.39
